createdAt,value
2022-09-02T00:01:31.330Z,0.32
2022-09-02T00:04:17.436Z,0.60
2022-09-02T00:06:45.971Z,0.50
2022-09-02T00:09:15.897Z,0.40
2022-09-02T00:11:45.162Z,0.40
2022-09-02T00:14:19.308Z,0.40
2022-09-02T00:16:51.039Z,0.50
2022-09-02T00:19:21.301Z,0.30
2022-09-02T00:21:49.053Z,0.45
2022-09-02T00:24:17.293Z,0.32
2022-09-02T00:26:45.345Z,0.55
2022-09-02T00:29:14.547Z,0.68
2022-09-02T00:31:44.006Z,0.57
2022-09-02T00:34:12.085Z,0.40
2022-09-02T00:36:39.395Z,0.40
2022-09-02T00:39:08.655Z,0.70
2022-09-02T00:41:41.913Z,0.65
2022-09-02T00:44:12.133Z,0.40
2022-09-02T00:46:40.283Z,0.70
2022-09-02T00:49:25.914Z,0.60
2022-09-02T00:52:01.093Z,0.40
2022-09-02T00:54:30.893Z,0.80
2022-09-02T00:57:00.157Z,0.63
2022-09-02T00:59:46.302Z,0.60
2022-09-02T01:02:13.704Z,0.70
2022-09-02T01:04:43.029Z,0.77
2022-09-02T01:07:10.202Z,1.50
2022-09-02T01:09:37.884Z,1.60
2022-09-02T01:12:05.475Z,1.73
2022-09-02T01:14:32.509Z,1.55
2022-09-02T01:17:01.833Z,1.13
2022-09-02T01:19:34.866Z,1.50
2022-09-02T01:22:02.201Z,1.15
2022-09-02T01:24:31.826Z,1.30
2022-09-02T01:26:59.382Z,1.10
2022-09-02T01:29:28.200Z,1.13
2022-09-02T01:31:55.825Z,1.10
2022-09-02T01:34:23.315Z,1.00
2022-09-02T01:36:51.100Z,1.45
2022-09-02T01:39:18.516Z,0.80
2022-09-02T01:41:45.822Z,1.00
2022-09-02T01:44:14.469Z,1.10
2022-09-02T01:46:42.212Z,0.85
2022-09-02T01:49:09.367Z,0.88
2022-09-02T01:51:37.735Z,1.27
2022-09-02T01:54:05.583Z,0.75
2022-09-02T01:56:32.640Z,0.50
2022-09-02T01:59:02.498Z,0.68
2022-09-02T02:01:29.653Z,0.80
2022-09-02T02:03:57.291Z,0.98
2022-09-02T02:06:25.159Z,1.38
2022-09-02T02:08:53.567Z,0.85
2022-09-02T02:11:24.803Z,0.80
2022-09-02T02:13:58.787Z,0.57
2022-09-02T02:16:26.439Z,0.90
2022-09-02T02:18:53.679Z,0.45
2022-09-02T02:21:20.978Z,0.50
2022-09-02T02:23:48.492Z,0.95
2022-09-02T02:26:15.691Z,1.27
2022-09-02T02:28:43.087Z,0.85
2022-09-02T02:31:10.676Z,1.10
2022-09-02T02:33:38.475Z,1.00
2022-09-02T02:36:07.639Z,0.80
2022-09-02T02:38:36.655Z,0.77
2022-09-02T02:41:06.356Z,1.10
2022-09-02T02:43:37.294Z,1.13
2022-09-02T02:46:05.617Z,0.95
2022-09-02T02:48:34.058Z,0.82
2022-09-02T02:51:01.544Z,1.00
2022-09-02T02:53:31.102Z,1.20
2022-09-02T02:55:59.479Z,1.48
2022-09-02T02:58:26.691Z,1.20
2022-09-02T03:00:57.772Z,1.17
2022-09-02T03:03:25.138Z,1.13
2022-09-02T03:05:54.655Z,1.48
2022-09-02T03:08:22.947Z,1.33
2022-09-02T03:10:55.545Z,1.02
2022-09-02T03:13:26.719Z,1.02
2022-09-02T03:15:56.863Z,1.10
2022-09-02T03:18:24.034Z,1.23
2022-09-02T03:20:51.620Z,1.08
2022-09-02T03:23:19.206Z,0.80
2022-09-02T03:25:49.294Z,0.95
2022-09-02T03:28:24.922Z,1.13
2022-09-02T03:30:52.506Z,0.93
2022-09-02T03:33:19.707Z,1.20
2022-09-02T03:35:47.398Z,1.02
2022-09-02T03:38:15.680Z,1.02
2022-09-02T03:40:43.598Z,0.90
2022-09-02T03:43:10.994Z,1.00
2022-09-02T03:45:41.628Z,1.00
2022-09-02T03:48:14.085Z,1.70
2022-09-02T03:50:44.763Z,1.40
2022-09-02T03:53:19.742Z,1.17
2022-09-02T03:58:18.731Z,1.88
2022-09-02T04:00:51.694Z,1.83
2022-09-02T04:03:20.594Z,2.10
2022-09-02T04:05:49.518Z,2.08
2022-09-02T04:08:18.500Z,2.22
2022-09-02T04:10:46.296Z,2.00
2022-09-02T04:13:13.388Z,2.80
2022-09-02T04:15:44.316Z,2.28
2022-09-02T04:18:12.497Z,3.25
2022-09-02T04:20:40.454Z,3.58
2022-09-02T04:23:07.931Z,3.95
2022-09-02T04:25:40.644Z,3.97
2022-09-02T04:28:08.832Z,3.10
2022-09-02T04:30:39.302Z,3.97
2022-09-02T04:33:06.912Z,3.28
2022-09-02T04:35:35.955Z,3.05
2022-09-02T04:38:03.284Z,2.70
2022-09-02T04:40:31.507Z,2.30
2022-09-02T04:42:59.402Z,2.67
2022-09-02T04:45:29.767Z,3.20
2022-09-02T04:47:57.661Z,2.80
2022-09-02T04:50:25.158Z,3.25
2022-09-02T04:52:59.753Z,3.03
2022-09-02T04:55:28.053Z,2.92
2022-09-02T04:57:56.028Z,2.92
2022-09-02T05:00:23.227Z,3.55
2022-09-02T05:02:50.598Z,2.55
2022-09-02T05:05:18.668Z,3.28
2022-09-02T05:07:46.427Z,3.30
2022-09-02T05:10:15.928Z,3.25
2022-09-02T05:12:44.300Z,2.70
2022-09-02T05:15:12.938Z,3.03
2022-09-02T05:17:40.321Z,3.53
2022-09-02T05:20:09.754Z,3.08
2022-09-02T05:22:37.775Z,3.10
2022-09-02T05:25:08.731Z,3.15
2022-09-02T05:27:36.546Z,3.40
2022-09-02T05:30:05.135Z,2.58
2022-09-02T05:32:37.819Z,2.75
2022-09-02T05:35:06.334Z,2.92
2022-09-02T05:37:35.562Z,3.58
2022-09-02T05:40:05.370Z,3.60
2022-09-02T05:42:34.678Z,3.30
2022-09-02T05:45:01.854Z,3.47
2022-09-02T05:47:28.947Z,3.38
2022-09-02T05:49:56.813Z,3.03
2022-09-02T05:52:26.047Z,3.20
2022-09-02T05:54:55.322Z,2.90
2022-09-02T05:57:23.799Z,3.55
2022-09-02T05:59:58.306Z,2.92
2022-09-02T06:02:41.500Z,3.10
2022-09-02T06:05:12.301Z,4.30
2022-09-02T06:07:44.283Z,4.10
2022-09-02T06:10:13.013Z,4.25
2022-09-02T06:12:42.715Z,4.05
2022-09-02T06:15:11.007Z,5.15
2022-09-02T06:17:40.445Z,5.15
2022-09-02T06:20:11.301Z,4.07
2022-09-02T06:22:41.025Z,2.60
2022-09-02T06:25:08.755Z,4.03
2022-09-02T06:27:38.149Z,2.70
2022-09-02T06:30:05.754Z,2.83
2022-09-02T06:32:33.048Z,2.13
2022-09-02T06:35:04.657Z,1.88
2022-09-02T06:37:34.998Z,2.38
2022-09-02T06:40:04.989Z,2.28
2022-09-02T06:42:32.872Z,1.60
2022-09-02T06:45:08.746Z,2.22
2022-09-02T06:47:37.926Z,2.00
2022-09-02T06:50:05.500Z,2.70
2022-09-02T06:52:32.909Z,2.40
2022-09-02T06:55:01.029Z,2.00
2022-09-02T06:57:31.422Z,2.05
2022-09-02T07:00:07.944Z,1.40
2022-09-02T07:02:36.382Z,1.63
2022-09-02T07:05:11.160Z,1.52
2022-09-02T07:07:40.922Z,1.52
2022-09-02T07:10:13.605Z,1.10
2022-09-02T07:12:44.604Z,1.15
2022-09-02T07:15:15.160Z,1.48
2022-09-02T07:17:43.617Z,1.23
2022-09-02T07:20:16.365Z,1.08
2022-09-02T07:25:25.447Z,0.77
2022-09-02T07:27:54.510Z,0.73
2022-09-02T07:30:23.070Z,1.65
2022-09-02T07:32:57.085Z,1.60
2022-09-02T07:35:26.656Z,3.83
2022-09-02T07:37:54.590Z,0.98
2022-09-02T07:40:23.492Z,0.77
2022-09-02T07:42:51.879Z,0.95
2022-09-02T07:45:20.673Z,0.93
2022-09-02T07:47:49.436Z,0.88
2022-09-02T07:50:20.752Z,0.95
2022-09-02T07:52:54.768Z,0.90
2022-09-02T07:55:23.339Z,0.80
2022-09-02T07:57:52.328Z,0.80
2022-09-02T08:00:23.024Z,0.80
2022-09-02T08:02:52.104Z,0.52
2022-09-02T08:05:26.556Z,0.90
2022-09-02T08:07:53.673Z,0.95
2022-09-02T08:10:21.338Z,0.70
2022-09-02T08:12:48.360Z,0.80
2022-09-02T08:15:16.347Z,0.98
2022-09-02T08:17:44.400Z,0.65
2022-09-02T08:20:13.098Z,1.38
2022-09-02T08:22:40.916Z,0.73
2022-09-02T08:25:08.429Z,1.08
2022-09-02T08:27:37.244Z,0.80
2022-09-02T08:30:06.599Z,0.90
2022-09-02T08:32:33.617Z,1.10
2022-09-02T08:35:02.876Z,0.88
2022-09-02T08:37:34.257Z,0.90
2022-09-02T08:40:06.533Z,0.80
2022-09-02T08:42:39.214Z,0.85
2022-09-02T08:47:45.169Z,0.60
2022-09-02T08:50:15.899Z,0.85
2022-09-02T08:52:45.599Z,1.75
2022-09-02T08:55:21.459Z,0.82
2022-09-02T08:57:49.619Z,0.50
2022-09-02T09:00:17.329Z,0.50
2022-09-02T09:03:28.758Z,0.55
2022-09-02T09:06:16.959Z,0.77
2022-09-02T09:08:55.597Z,1.38
2022-09-02T09:11:44.886Z,0.68
2022-09-02T09:14:48.007Z,0.70
2022-09-02T09:17:39.517Z,1.00
2022-09-02T09:20:16.201Z,1.10
2022-09-02T09:22:43.713Z,0.80
2022-09-02T09:25:15.309Z,0.38
2022-09-02T09:27:46.012Z,0.93
2022-09-02T09:30:15.566Z,1.00
2022-09-02T09:32:47.668Z,1.25
2022-09-02T09:35:18.718Z,1.40
2022-09-02T09:37:48.337Z,0.90
2022-09-02T09:40:21.980Z,0.52
2022-09-02T09:42:56.748Z,0.73
2022-09-02T09:45:35.725Z,0.70
2022-09-02T09:48:18.301Z,0.50
2022-09-02T09:50:55.132Z,0.40
2022-09-02T09:53:23.992Z,0.60
2022-09-02T09:55:58.481Z,0.63
2022-09-02T09:58:32.247Z,0.73
2022-09-02T10:01:10.847Z,0.50
2022-09-02T10:03:43.018Z,0.65
2022-09-02T10:06:36.314Z,0.52
2022-09-02T10:09:18.662Z,0.50
2022-09-02T10:11:57.322Z,0.60
2022-09-02T10:14:31.154Z,0.68
2022-09-02T10:17:26.754Z,0.55
2022-09-02T10:20:07.997Z,0.38
2022-09-02T10:23:00.025Z,0.55
2022-09-02T10:25:49.095Z,0.80
2022-09-02T10:28:53.759Z,0.30
2022-09-02T10:31:26.632Z,0.57
2022-09-02T10:34:23.081Z,0.40
2022-09-02T10:37:07.172Z,0.50
2022-09-02T10:39:53.065Z,0.50
2022-09-02T10:42:34.675Z,0.68
2022-09-02T10:45:16.393Z,0.60
2022-09-02T10:47:54.366Z,0.50
2022-09-02T10:50:49.550Z,0.60
2022-09-02T10:53:31.571Z,0.60
2022-09-02T10:56:21.430Z,0.43
2022-09-02T10:59:01.464Z,0.40
2022-09-02T11:01:54.804Z,0.65
2022-09-02T11:05:01.230Z,0.73
2022-09-02T11:07:40.984Z,0.30
2022-09-02T11:10:19.809Z,1.10
2022-09-02T11:12:52.859Z,0.50
2022-09-02T11:15:29.551Z,0.60
2022-09-02T11:18:35.632Z,0.65
2022-09-02T11:21:10.360Z,0.63
2022-09-02T11:23:40.099Z,0.50
2022-09-02T11:26:28.229Z,0.50
2022-09-02T11:29:15.469Z,0.68
2022-09-02T11:32:10.308Z,0.47
2022-09-02T11:34:43.123Z,0.90
2022-09-02T11:38:05.789Z,0.50
2022-09-02T11:44:14.651Z,0.80
2022-09-02T11:46:54.934Z,0.75
2022-09-02T11:49:33.053Z,0.60
2022-09-02T11:52:29.157Z,0.50
2022-09-02T11:55:11.149Z,0.80
2022-09-02T11:57:41.372Z,0.60
2022-09-02T12:00:31.625Z,0.68
2022-09-02T12:03:11.943Z,0.60
2022-09-02T12:06:04.248Z,1.25
2022-09-02T12:08:35.316Z,0.70
2022-09-02T12:11:06.008Z,1.15
2022-09-02T12:16:21.054Z,0.60
2022-09-02T12:18:54.168Z,0.60
2022-09-02T12:21:23.460Z,0.73
2022-09-02T12:23:56.930Z,0.88
2022-09-02T12:26:36.023Z,1.02
2022-09-02T12:29:29.785Z,1.10
2022-09-02T12:31:57.298Z,1.00
2022-09-02T12:34:24.265Z,0.57
2022-09-02T12:37:03.534Z,1.67
2022-09-02T12:39:35.190Z,0.40
2022-09-02T12:42:06.827Z,0.55
2022-09-02T12:44:53.995Z,0.85
2022-09-02T12:47:32.305Z,0.70
2022-09-02T12:50:17.347Z,1.02
2022-09-02T12:52:49.482Z,1.23
2022-09-02T12:55:16.692Z,0.45
2022-09-02T12:57:52.943Z,0.50
2022-09-02T13:00:27.569Z,0.55
2022-09-02T13:03:09.500Z,0.30
2022-09-02T13:05:58.262Z,0.80
2022-09-02T13:09:12.400Z,0.40
2022-09-02T13:12:17.342Z,0.40
2022-09-02T13:14:44.359Z,1.20
2022-09-02T13:17:36.769Z,1.25
2022-09-02T13:20:14.504Z,0.70
2022-09-02T13:23:10.871Z,0.68
2022-09-02T13:26:22.828Z,0.60
2022-09-02T13:29:22.024Z,0.75
2022-09-02T13:32:13.149Z,0.80
2022-09-02T13:34:44.497Z,0.63
2022-09-02T13:37:33.779Z,0.65
2022-09-02T13:40:06.790Z,0.65
2022-09-02T13:42:34.006Z,0.47
2022-09-02T13:45:12.098Z,0.50
2022-09-02T13:47:43.530Z,0.82
2022-09-02T13:50:14.747Z,0.68
2022-09-02T13:53:46.004Z,0.47
2022-09-02T13:55:31.873Z,0.68
2022-09-02T13:58:03.741Z,0.63
2022-09-02T14:00:39.854Z,0.40
2022-09-02T14:03:11.863Z,0.40
2022-09-02T14:05:47.378Z,0.43
2022-09-02T14:08:18.592Z,0.38
2022-09-02T14:10:49.156Z,0.50
2022-09-02T14:13:16.988Z,0.68
2022-09-02T14:15:45.031Z,0.50
2022-09-02T14:18:23.057Z,0.45
2022-09-02T14:21:19.086Z,0.50
2022-09-02T14:23:52.884Z,0.43
2022-09-02T14:26:28.436Z,0.60
2022-09-02T14:28:55.662Z,0.40
2022-09-02T14:31:26.692Z,0.40
2022-09-02T14:33:53.747Z,0.45
2022-09-02T14:36:21.311Z,0.40
2022-09-02T14:38:48.345Z,0.65
2022-09-02T14:41:18.287Z,0.63
2022-09-02T14:43:54.903Z,0.60
2022-09-02T14:46:27.003Z,0.45
2022-09-02T14:49:02.517Z,0.60
2022-09-02T14:51:43.797Z,1.05
2022-09-02T14:54:11.416Z,0.45
2022-09-02T14:56:47.049Z,0.40
2022-09-02T14:59:14.304Z,0.55
2022-09-02T15:01:46.696Z,0.45
2022-09-02T15:06:45.140Z,0.70
2022-09-02T15:09:16.505Z,0.45
2022-09-02T15:11:49.058Z,0.70
2022-09-02T15:14:16.326Z,0.40
2022-09-02T15:16:43.383Z,0.50
2022-09-02T15:19:10.695Z,0.30
2022-09-02T15:21:37.786Z,0.93
2022-09-02T15:24:05.845Z,0.60
2022-09-02T15:26:32.871Z,0.90
2022-09-02T15:29:00.146Z,0.52
2022-09-02T15:31:27.224Z,0.52
2022-09-02T15:33:54.370Z,0.43
2022-09-02T15:36:21.597Z,1.95
2022-09-02T15:38:49.050Z,0.52
2022-09-02T15:41:18.899Z,0.80
2022-09-02T15:43:47.630Z,0.80
2022-09-02T15:46:30.636Z,0.30
2022-09-02T15:49:02.842Z,0.63
2022-09-02T15:51:30.781Z,0.22
2022-09-02T15:54:03.670Z,0.40
2022-09-02T15:56:32.618Z,0.50
2022-09-02T15:59:09.356Z,0.50
2022-09-02T16:01:42.153Z,0.30
2022-09-02T16:04:11.109Z,0.60
2022-09-02T16:06:40.710Z,0.45
2022-09-02T16:09:10.072Z,0.50
2022-09-02T16:11:42.278Z,0.60
2022-09-02T16:14:09.486Z,0.40
2022-09-02T16:16:37.405Z,0.50
2022-09-02T16:19:07.068Z,0.57
2022-09-02T16:21:35.205Z,0.43
2022-09-02T16:24:02.464Z,0.60
2022-09-02T16:26:34.967Z,0.30
2022-09-02T16:31:32.563Z,0.40
2022-09-02T16:34:05.432Z,0.90
2022-09-02T16:36:34.603Z,0.60
2022-09-02T16:39:03.112Z,0.45
2022-09-02T16:41:35.774Z,0.52
2022-09-02T16:44:08.317Z,0.30
2022-09-02T16:49:03.946Z,0.40
2022-09-02T16:51:31.077Z,0.70
2022-09-02T16:54:00.476Z,0.50
2022-09-02T16:56:28.189Z,0.40
2022-09-02T16:58:55.265Z,0.50
2022-09-02T17:01:23.250Z,0.55
2022-09-02T17:03:50.703Z,0.60
2022-09-02T17:06:18.486Z,0.55
2022-09-02T17:08:45.611Z,0.60
2022-09-02T17:11:25.877Z,0.70
2022-09-02T17:13:59.262Z,0.30
2022-09-02T17:16:30.638Z,0.40
2022-09-02T17:18:58.158Z,0.70
2022-09-02T17:21:45.106Z,0.40
2022-09-02T17:24:13.817Z,0.80
2022-09-02T17:26:43.507Z,0.57
2022-09-02T17:29:31.614Z,0.75
2022-09-02T17:32:00.395Z,0.60
2022-09-02T17:34:27.445Z,0.40
2022-09-02T17:36:54.495Z,0.32
2022-09-02T17:39:21.765Z,0.50
2022-09-02T17:41:54.513Z,0.57
2022-09-02T17:44:23.979Z,0.50
2022-09-02T17:46:51.540Z,0.45
2022-09-02T17:49:19.161Z,1.00
2022-09-02T17:51:47.322Z,0.60
2022-09-02T17:54:15.120Z,0.40
2022-09-02T17:56:54.728Z,0.30
2022-09-02T17:59:43.549Z,0.75
2022-09-02T18:02:37.974Z,0.82
2022-09-02T18:05:19.684Z,1.90
2022-09-02T18:07:50.726Z,1.85
2022-09-02T18:10:17.995Z,1.40
2022-09-02T18:12:45.031Z,0.93
2022-09-02T18:15:18.623Z,0.90
2022-09-02T18:17:49.960Z,0.60
2022-09-02T18:20:36.144Z,1.73
2022-09-02T18:23:22.629Z,0.65
2022-09-02T18:26:17.561Z,0.50
2022-09-02T18:29:06.439Z,0.60
2022-09-02T18:31:47.012Z,0.60
2022-09-02T18:34:20.977Z,0.70
2022-09-02T18:37:13.538Z,1.00
2022-09-02T18:40:04.425Z,1.05
2022-09-02T18:42:37.695Z,1.27
2022-09-02T18:45:28.180Z,1.15
2022-09-02T18:48:01.357Z,0.98
2022-09-02T18:50:50.921Z,1.13
2022-09-02T18:53:22.258Z,0.90
2022-09-02T18:55:52.019Z,1.20
2022-09-02T18:58:41.035Z,1.23
2022-09-02T19:01:19.078Z,1.02
2022-09-02T19:03:46.278Z,1.20
2022-09-02T19:06:25.441Z,1.40
2022-09-02T19:09:05.469Z,1.10
2022-09-02T19:11:35.602Z,1.05
2022-09-02T19:14:08.361Z,0.77
2022-09-02T19:16:38.829Z,0.80
2022-09-02T19:19:10.388Z,0.98
2022-09-02T19:21:51.621Z,1.00
2022-09-02T19:24:28.423Z,0.70
2022-09-02T19:27:03.786Z,1.00
2022-09-02T19:29:33.947Z,1.13
2022-09-02T19:32:01.274Z,0.90
2022-09-02T19:34:33.903Z,0.90
2022-09-02T19:39:28.577Z,1.33
2022-09-02T19:41:55.673Z,1.08
2022-09-02T19:44:22.720Z,1.10
2022-09-02T19:47:42.157Z,1.10
2022-09-02T19:49:36.809Z,1.02
2022-09-02T19:52:04.058Z,1.00
2022-09-02T19:54:31.298Z,1.15
2022-09-02T19:56:58.350Z,0.95
2022-09-02T19:59:26.580Z,1.85
2022-09-02T20:01:53.883Z,2.92
2022-09-02T20:04:20.977Z,2.72
2022-09-02T20:06:48.068Z,3.08
2022-09-02T20:09:15.134Z,2.88
2022-09-02T20:11:44.219Z,2.13
2022-09-02T20:14:11.404Z,1.30
2022-09-02T20:16:38.654Z,1.17
2022-09-02T20:19:05.786Z,1.25
2022-09-02T20:21:42.213Z,1.20
2022-09-02T20:24:11.745Z,1.20
2022-09-02T20:26:52.184Z,1.00
2022-09-02T20:29:22.829Z,1.20
2022-09-02T20:32:29.706Z,0.98
2022-09-02T20:35:03.159Z,0.98
2022-09-02T20:37:54.250Z,0.73
2022-09-02T20:40:54.640Z,1.20
2022-09-02T20:43:47.230Z,1.35
2022-09-02T20:46:38.421Z,1.33
2022-09-02T20:49:13.009Z,1.10
2022-09-02T20:51:53.914Z,1.17
2022-09-02T20:54:35.575Z,0.85
2022-09-02T20:57:28.465Z,0.80
2022-09-02T21:00:12.307Z,1.00
2022-09-02T21:02:51.143Z,0.90
2022-09-02T21:05:24.746Z,0.70
2022-09-02T21:08:01.363Z,1.08
2022-09-02T21:10:45.974Z,1.00
2022-09-02T21:13:31.669Z,1.17
2022-09-02T21:16:08.991Z,1.33
2022-09-02T21:18:41.971Z,1.23
2022-09-02T21:21:25.016Z,0.93
2022-09-02T21:23:57.507Z,0.93
2022-09-02T21:26:49.357Z,1.48
2022-09-02T21:29:45.338Z,0.98
2022-09-02T21:32:21.217Z,1.33
2022-09-02T21:34:56.554Z,1.23
2022-09-02T21:37:26.576Z,1.10
2022-09-02T21:39:58.728Z,0.88
2022-09-02T21:42:45.247Z,1.40
2022-09-02T21:45:22.913Z,0.90
2022-09-02T21:48:10.198Z,1.02
2022-09-02T21:50:57.930Z,1.05
2022-09-02T21:53:57.078Z,1.20
2022-09-02T21:56:47.143Z,0.90
2022-09-02T21:59:34.447Z,1.20
2022-09-02T22:02:14.809Z,1.10
2022-09-02T22:04:59.178Z,0.93
2022-09-02T22:08:11.157Z,1.17
2022-09-02T22:11:14.994Z,0.90
2022-09-02T22:13:42.248Z,0.85
2022-09-02T22:16:45.727Z,1.00
2022-09-02T22:19:13.518Z,1.02
2022-09-02T22:21:49.210Z,0.90
2022-09-02T22:24:22.802Z,0.95
2022-09-02T22:26:55.431Z,1.45
2022-09-02T22:32:08.911Z,0.95
2022-09-02T22:34:49.483Z,1.10
2022-09-02T22:37:23.924Z,1.10
2022-09-02T22:39:53.946Z,1.08
2022-09-02T22:42:35.973Z,1.23
2022-09-02T22:45:24.626Z,0.73
2022-09-02T22:48:17.458Z,1.38
2022-09-02T22:51:14.094Z,2.85
2022-09-02T22:53:45.950Z,1.13
2022-09-02T22:56:21.422Z,1.08
2022-09-02T22:59:01.487Z,1.20
2022-09-02T23:01:45.212Z,1.58
2022-09-02T23:04:32.488Z,0.80
2022-09-02T23:07:05.490Z,0.75
2022-09-02T23:09:33.820Z,1.08
2022-09-02T23:12:16.039Z,1.05
2022-09-02T23:14:59.853Z,0.98
2022-09-02T23:17:39.732Z,0.80
2022-09-02T23:20:10.471Z,1.30
2022-09-02T23:23:22.756Z,1.20
2022-09-02T23:26:09.611Z,1.13
2022-09-02T23:29:01.254Z,0.70
2022-09-02T23:31:47.414Z,0.77
2022-09-02T23:34:28.045Z,0.70
2022-09-02T23:37:04.529Z,0.50
2022-09-02T23:39:56.506Z,0.52
2022-09-02T23:42:24.674Z,0.90
2022-09-02T23:44:59.154Z,1.00
2022-09-02T23:47:39.928Z,0.77
2022-09-02T23:50:21.434Z,0.65
2022-09-02T23:53:02.895Z,0.63
2022-09-02T23:55:43.733Z,0.70
2022-09-02T23:58:34.511Z,0.80
